Ogema, Wisconsin
Current Conditions -  °F | °C
As of 6:55 AM on Wednesday 26 Nov 2014 (Local Time) from KPBH Reporting Station
Overcast Overcast  
Wind Chill: 18°   Ceiling: 4600
Heat Index: 18°   Visibility: 10mi
Dew Point: 15°   Wind: 0mph
Humidity: 88%   Direction: NA
Pressure: 30.07"   Gusts: NA
Location:  45.44°N, 90.3°W
Report Text: KPBH 261255Z AUTO 00000KT 10SM OVC046 M08/M10 A3007 RMK AO2 T10801096
Loading
Personal Weather Stations






























Interactive Weather Map New forecast layout! Learn more

10-Day Weather Forecast

Advertisements
Track Severe Weather on mobile